LIRS/GRS METAR and TAF weather

Enter ICAO airport designator
Station Type Date Time Source
LIRS METAR 2019/10/21 03:55 UTC NOAA

LIRS 210355Z 12003KT 9999 SCT030 19/17 Q1019


Station Type Date Time Source
LIRS Decoded METAR 2019/10/21 03:55 UTC NOAA

Grosseto, Italy (LIRS) 42-45N 011-04E 7M
Oct 20, 2019 - 11:55 PM EDT / 2019.10.21 0355 UTC
Wind: from the ESE (120 degrees) at 3 MPH (3 KT):0
Visibility: greater than 7 mile(s):0
Sky conditions: partly cloudy
Temperature: 66 F (19 C)
Dew Point: 62 F (17 C)
Relative Humidity: 88%
Pressure (altimeter): 30.09 in. Hg (1019 hPa)
ob: LIRS 210355Z 12003KT 9999 SCT030 19/17 Q1019
cycle: 4

Station Type Date Time Source
LIRS TAF 2018/06/29 09:24 UTC NOAA

TAF TAF LIRS 290800Z 2909/2921 VRB03KT 9999 FEW030
BECMG 2911/2913 24015KT

Example: see airport list